Time;durP1;ratioP1;P1;durP2;ratioP2;P2;SDS_P1;SDS_P2;PMS_P1;PMS_P2;Temp;Humidity;BMP_temperature;BMP_pressure;BME280_temperature;BME280_humidity;BME280_pressure;Samples;Min_cycle;Max_cycle;Signal;HPM_P1;HPM_P2
2024/02/07 00:00:20;;;;;;;1.05;0.80;;;17.90;61.30;;;;;;6201086;22;20230;-86
2024/02/07 00:02:46;;;;;;;1.35;0.90;;;17.80;61.10;;;;;;6226781;22;20564;-87
2024/02/07 00:05:12;;;;;;;1.30;0.80;;;17.90;60.80;;;;;;6252160;22;20216;-85
2024/02/07 00:07:38;;;;;;;2.45;1.10;;;17.80;61.00;;;;;;6226103;22;20237;-85
2024/02/07 00:10:11;;;;;;;1.17;0.80;;;17.90;61.20;;;;;;6201569;22;20145;-87
2024/02/07 00:12:40;;;;;;;1.70;1.05;;;17.90;61.00;;;;;;6200722;22;20176;-86
2024/02/07 00:15:07;;;;;;;2.08;1.17;;;17.80;61.20;;;;;;6201525;22;20159;-86
2024/02/07 00:17:33;;;;;;;2.88;0.98;;;17.80;61.30;;;;;;6202328;22;20153;-86
2024/02/07 00:19:59;;;;;;;4.60;1.00;;;17.80;61.20;;;;;;6226370;22;20186;-86
2024/02/07 00:22:27;;;;;;;3.28;1.10;;;17.80;61.10;;;;;;6226085;22;20137;-87
2024/02/07 00:24:58;;;;;;;3.20;1.02;;;17.70;61.10;;;;;;6201986;22;20478;-87
2024/02/07 00:27:24;;;;;;;2.15;0.90;;;17.80;61.10;;;;;;6225133;22;20164;-87
2024/02/07 00:29:50;;;;;;;5.15;1.00;;;17.80;61.20;;;;;;6201218;22;20176;-86
2024/02/07 00:32:20;;;;;;;2.28;0.90;;;17.70;61.30;;;;;;6201752;22;20556;-87
2024/02/07 00:34:53;;;;;;;1.60;0.90;;;17.80;61.30;;;;;;6200624;22;20594;-88
2024/02/07 00:37:20;;;;;;;3.60;1.05;;;17.80;61.40;;;;;;6199856;22;20486;-86
2024/02/07 00:39:46;;;;;;;1.27;0.82;;;17.80;61.40;;;;;;6151370;22;20257;-86
2024/02/07 00:42:13;;;;;;;1.83;0.93;;;17.70;61.10;;;;;;6226567;22;20552;-86
2024/02/07 00:44:41;;;;;;;2.47;1.00;;;17.80;61.50;;;;;;6200274;22;20164;-87
2024/02/07 00:47:07;;;;;;;2.70;1.10;;;17.70;61.20;;;;;;6175435;22;20152;-86
2024/02/07 00:49:33;;;;;;;2.45;1.10;;;17.70;61.10;;;;;;6259340;22;20188;-85
2024/02/07 00:51:59;;;;;;;1.52;1.00;;;17.80;61.40;;;;;;6231180;22;20156;-87
2024/02/07 00:54:25;;;;;;;2.35;0.80;;;17.70;61.30;;;;;;6231933;22;20172;-86
2024/02/07 00:56:54;;;;;;;2.28;1.00;;;17.70;61.60;;;;;;6256264;22;20190;-87
2024/02/07 00:59:21;;;;;;;1.60;1.00;;;17.70;61.30;;;;;;6257395;22;20144;-87
2024/02/07 01:01:52;;;;;;;1.00;0.80;;;17.70;61.30;;;;;;6182175;22;20171;-87
2024/02/07 01:04:21;;;;;;;1.50;0.93;;;17.60;61.20;;;;;;6232136;22;20148;-85
2024/02/07 01:06:50;;;;;;;1.23;0.75;;;17.70;61.40;;;;;;6232410;22;20269;-86
2024/02/07 01:09:21;;;;;;;2.03;0.95;;;17.70;61.60;;;;;;6282332;22;20132;-87
2024/02/07 01:11:55;;;;;;;1.95;1.10;;;17.70;61.30;;;;;;6281890;22;20140;-84
2024/02/07 01:14:26;;;;;;;1.23;0.95;;;17.70;60.90;;;;;;6231063;22;20415;-86
2024/02/07 01:16:54;;;;;;;2.72;1.00;;;17.70;61.30;;;;;;6230662;22;20197;-87
2024/02/07 01:19:22;;;;;;;1.95;1.00;;;17.60;61.60;;;;;;6231407;22;20152;-85
2024/02/07 01:21:49;;;;;;;1.50;1.00;;;17.70;61.60;;;;;;6231233;22;20152;-86
2024/02/07 01:24:19;;;;;;;1.42;0.98;;;17.60;61.60;;;;;;6257436;22;20245;-85
2024/02/07 01:26:48;;;;;;;1.38;1.00;;;17.70;61.00;;;;;;6205742;22;20151;-87
2024/02/07 01:29:17;;;;;;;2.95;1.00;;;17.70;61.20;;;;;;6181397;22;20148;-85
2024/02/07 01:31:43;;;;;;;1.02;0.88;;;17.60;61.30;;;;;;6181677;22;20148;-87
2024/02/07 01:34:18;;;;;;;3.25;1.27;;;17.60;61.20;;;;;;6232094;22;20172;-85
2024/02/07 01:36:46;;;;;;;1.10;1.00;;;17.70;61.40;;;;;;6230764;22;20152;-86
2024/02/07 01:39:12;;;;;;;1.30;0.93;;;17.60;61.20;;;;;;6205523;22;20201;-87
2024/02/07 01:44:29;;;;;;;1.20;0.85;;;17.60;61.50;;;;;;6285597;22;20440;-85
2024/02/07 01:49:45;;;;;;;1.42;1.00;;;17.60;61.70;;;;;;6285624;22;20187;-85
2024/02/07 01:52:15;;;;;;;1.50;1.00;;;17.50;61.40;;;;;;6257041;22;20150;-86
2024/02/07 01:54:41;;;;;;;1.13;0.80;;;17.60;61.60;;;;;;6205817;22;20571;-86
2024/02/07 01:57:13;;;;;;;2.00;0.90;;;17.60;61.40;;;;;;6257077;22;20155;-86
2024/02/07 01:59:39;;;;;;;1.60;0.90;;;17.60;61.40;;;;;;6258119;22;20120;-86
2024/02/07 02:02:07;;;;;;;1.27;1.02;;;17.60;61.40;;;;;;6231449;22;20148;-85
2024/02/07 02:04:33;;;;;;;1.02;0.90;;;17.60;61.60;;;;;;6237062;22;20144;-87
2024/02/07 02:07:03;;;;;;;1.77;0.90;;;17.60;61.20;;;;;;6245445;22;20208;-84
2024/02/07 02:09:34;;;;;;;2.63;1.08;;;17.60;61.40;;;;;;6245688;22;20148;-87
2024/02/07 02:12:02;;;;;;;1.58;0.80;;;17.60;61.20;;;;;;6257164;22;20276;-86
2024/02/07 02:14:28;;;;;;;1.25;0.90;;;17.60;61.60;;;;;;6232071;22;20210;-85
2024/02/07 02:17:00;;;;;;;1.52;0.98;;;17.60;61.40;;;;;;6257599;22;20543;-86
2024/02/07 02:19:27;;;;;;;3.55;1.20;;;17.60;61.60;;;;;;6231761;22;20155;-86
2024/02/07 02:22:23;;;;;;;1.38;1.00;;;17.60;61.40;;;;;;6231418;22;20462;-87
2024/02/07 02:25:14;;;;;;;1.67;1.02;;;17.60;61.20;;;;;;6282362;22;20155;-86
2024/02/07 02:28:18;;;;;;;1.60;0.88;;;17.60;61.40;;;;;;6260659;22;20144;-85
2024/02/07 02:30:50;;;;;;;1.42;0.80;;;17.60;61.60;;;;;;6308710;22;20159;-85
2024/02/07 02:33:18;;;;;;;1.83;0.98;;;17.60;61.70;;;;;;6233035;22;20460;-85
2024/02/07 02:35:49;;;;;;;2.45;0.98;;;17.60;61.70;;;;;;6180418;22;20224;-87
2024/02/07 02:38:22;;;;;;;1.48;1.33;;;17.60;61.60;;;;;;6206048;22;20237;-85
2024/02/07 02:40:52;;;;;;;1.75;1.20;;;17.60;61.60;;;;;;6205626;22;20572;-86
2024/02/07 02:43:22;;;;;;;2.67;1.13;;;17.60;61.20;;;;;;6230304;22;20486;-85
2024/02/07 02:45:51;;;;;;;1.55;1.20;;;17.60;61.30;;;;;;6256517;22;20575;-87
2024/02/07 02:48:23;;;;;;;1.35;0.80;;;17.50;61.60;;;;;;6256678;22;20136;-85
2024/02/07 02:50:49;;;;;;;1.55;1.00;;;17.50;61.40;;;;;;6230603;22;20192;-87
2024/02/07 02:53:22;;;;;;;2.25;0.90;;;17.50;61.30;;;;;;6256256;22;20171;-86
2024/02/07 02:55:48;;;;;;;1.75;1.00;;;17.60;61.40;;;;;;6180768;22;20579;-86
2024/02/07 02:58:18;;;;;;;1.17;0.82;;;17.50;61.40;;;;;;6224664;22;20149;-86
2024/02/07 03:00:50;;;;;;;1.38;0.88;;;17.50;61.40;;;;;;6199659;22;20213;-86
2024/02/07 03:03:16;;;;;;;2.95;1.20;;;17.50;61.40;;;;;;6202289;22;20619;-87
2024/02/07 03:05:56;;;;;;;1.90;1.10;;;17.50;61.40;;;;;;6224764;22;20726;-86
2024/02/07 03:08:29;;;;;;;1.30;1.00;;;17.50;61.40;;;;;;6203904;22;20156;-85
2024/02/07 03:10:56;;;;;;;2.00;0.90;;;17.50;61.40;;;;;;6202421;22;20232;-87
2024/02/07 03:13:25;;;;;;;2.00;0.93;;;17.50;61.40;;;;;;6225011;22;20187;-87
2024/02/07 03:15:52;;;;;;;3.63;1.05;;;17.50;61.40;;;;;;6200780;22;20684;-86
2024/02/07 03:18:20;;;;;;;1.73;1.13;;;17.50;61.40;;;;;;6224951;22;20141;-85
2024/02/07 03:20:51;;;;;;;1.98;1.13;;;17.50;61.50;;;;;;6201145;22;20232;-87
2024/02/07 03:23:17;;;;;;;1.67;0.93;;;17.50;61.30;;;;;;6199919;22;20180;-86
2024/02/07 03:25:44;;;;;;;2.08;1.08;;;17.50;61.20;;;;;;6224837;22;20208;-86
2024/02/07 03:28:14;;;;;;;1.33;1.10;;;17.50;61.30;;;;;;6202387;22;20141;-86
2024/02/07 03:30:40;;;;;;;1.60;1.08;;;17.50;61.50;;;;;;6232899;22;20155;-87
2024/02/07 03:33:08;;;;;;;2.22;1.10;;;17.50;61.60;;;;;;6256160;22;20168;-86
2024/02/07 03:35:34;;;;;;;1.83;0.95;;;17.50;61.30;;;;;;6256023;22;20134;-86
2024/02/07 03:38:01;;;;;;;2.65;1.30;;;17.50;61.50;;;;;;6256216;22;20227;-87
2024/02/07 03:40:28;;;;;;;1.52;1.10;;;17.50;61.20;;;;;;6256721;22;20140;-85
2024/02/07 03:42:56;;;;;;;1.48;0.98;;;17.50;61.20;;;;;;6231462;22;20251;-87
2024/02/07 03:45:24;;;;;;;2.10;1.20;;;17.50;61.40;;;;;;6231898;22;20152;-85
2024/02/07 03:47:50;;;;;;;1.52;1.00;;;17.50;61.40;;;;;;6232781;22;20575;-86
2024/02/07 03:50:16;;;;;;;2.05;1.17;;;17.50;61.30;;;;;;6214530;22;20192;-85
2024/02/07 03:52:43;;;;;;;1.77;1.10;;;17.50;61.50;;;;;;6200180;22;20184;-85
2024/02/07 03:55:12;;;;;;;1.58;1.00;;;17.50;61.20;;;;;;6226066;22;20137;-85
2024/02/07 03:57:44;;;;;;;1.42;0.93;;;17.50;61.30;;;;;;6226469;22;20145;-87
2024/02/07 04:00:13;;;;;;;1.30;0.75;;;17.50;61.40;;;;;;6202358;22;20168;-86
2024/02/07 04:02:41;;;;;;;2.42;0.98;;;17.50;61.20;;;;;;6201422;22;20210;-86
2024/02/07 04:05:08;;;;;;;1.10;0.98;;;17.50;61.20;;;;;;6200755;22;20145;-86
2024/02/07 04:07:34;;;;;;;2.33;1.17;;;17.50;61.30;;;;;;6200900;22;20590;-85
2024/02/07 04:10:04;;;;;;;1.38;1.10;;;17.50;61.10;;;;;;6201742;22;20145;-87
2024/02/07 05:17:10;;;;;;;1.75;1.00;;;17.40;61.00;;;;;;6244668;22;20475;-87
2024/02/07 05:19:38;;;;;;;1.40;1.30;;;17.40;61.00;;;;;;6230832;22;20175;-86
2024/02/07 05:22:07;;;;;;;1.27;1.02;;;17.40;61.00;;;;;;6257367;22;20216;-87
2024/02/07 05:24:33;;;;;;;2.55;1.25;;;17.40;61.10;;;;;;6230971;22;20156;-86
2024/02/07 05:27:07;;;;;;;1.98;1.10;;;17.40;61.00;;;;;;6282613;22;20163;-86
2024/02/07 05:29:35;;;;;;;1.50;1.00;;;17.40;60.70;;;;;;6231554;22;20243;-86
2024/02/07 05:32:01;;;;;;;2.22;1.20;;;17.40;61.00;;;;;;6283200;22;20144;-86
2024/02/07 05:34:31;;;;;;;1.08;0.98;;;17.40;60.90;;;;;;6232313;22;20171;-86
2024/02/07 05:36:58;;;;;;;1.10;1.00;;;17.40;60.90;;;;;;6206014;22;20148;-88
2024/02/07 05:39:26;;;;;;;1.90;1.02;;;17.40;60.70;;;;;;6257107;22;20239;-85
2024/02/07 05:41:53;;;;;;;1.50;1.02;;;17.40;61.00;;;;;;6232105;22;20182;-86
2024/02/07 05:44:24;;;;;;;1.55;1.02;;;17.40;60.70;;;;;;6231512;22;20148;-86
2024/02/07 05:46:50;;;;;;;3.42;1.20;;;17.40;61.10;;;;;;6206205;22;20156;-87
2024/02/07 05:49:15;;;;;;;1.20;0.93;;;17.40;61.00;;;;;;6256257;22;20273;-86
2024/02/07 05:51:42;;;;;;;2.20;1.10;;;17.40;60.80;;;;;;6257133;22;20132;-85
2024/02/07 05:54:08;;;;;;;1.23;0.80;;;17.40;60.80;;;;;;6231443;22;20175;-86
2024/02/07 05:56:35;;;;;;;2.13;1.10;;;17.40;60.90;;;;;;6282049;22;20478;-85
2024/02/07 05:59:01;;;;;;;1.35;0.98;;;17.40;61.00;;;;;;6256942;22;20619;-87
2024/02/07 06:01:29;;;;;;;1.40;1.00;;;17.40;60.90;;;;;;6257517;22;20139;-86
2024/02/07 06:03:55;;;;;;;1.92;1.10;;;17.40;60.70;;;;;;6231754;22;20223;-86
2024/02/07 06:06:23;;;;;;;1.00;0.90;;;17.50;60.70;;;;;;6282747;22;20582;-87
2024/02/07 06:08:52;;;;;;;2.60;1.05;;;17.40;60.70;;;;;;6231513;22;20136;-87
2024/02/07 06:11:18;;;;;;;2.75;1.30;;;17.40;60.80;;;;;;6231677;22;20238;-87
2024/02/07 06:13:44;;;;;;;2.10;0.98;;;17.40;60.70;;;;;;6255046;22;20255;-86
2024/02/07 06:16:10;;;;;;;1.40;1.00;;;17.40;61.00;;;;;;6229767;22;20137;-87
2024/02/07 06:18:40;;;;;;;1.67;1.13;;;17.40;60.90;;;;;;6254387;22;20578;-86
2024/02/07 06:21:05;;;;;;;1.85;0.90;;;17.40;61.00;;;;;;6178125;22;20151;-85
2024/02/07 06:23:33;;;;;;;1.48;1.00;;;17.40;60.90;;;;;;6229944;22;20140;-88
2024/02/07 06:26:04;;;;;;;1.13;1.02;;;17.40;60.90;;;;;;6228279;22;20186;-85
2024/02/07 06:28:32;;;;;;;1.15;0.85;;;17.40;60.60;;;;;;6229199;22;20143;-86
2024/02/07 06:31:02;;;;;;;1.10;1.00;;;17.40;61.10;;;;;;6280962;22;20128;-85
2024/02/07 06:33:28;;;;;;;1.20;1.10;;;17.40;61.00;;;;;;6203360;22;20195;-87
2024/02/07 06:35:54;;;;;;;3.08;1.20;;;17.40;60.70;;;;;;6229915;22;20144;-86
2024/02/07 06:38:20;;;;;;;1.60;1.17;;;17.40;60.90;;;;;;6254005;22;20509;-87
2024/02/07 06:40:51;;;;;;;1.90;1.25;;;17.30;60.90;;;;;;6280177;22;20555;-87
2024/02/07 06:43:17;;;;;;;1.13;0.98;;;17.40;60.80;;;;;;6202661;22;20238;-85
2024/02/07 06:45:47;;;;;;;2.75;1.13;;;17.30;60.90;;;;;;6229510;22;20151;-87
2024/02/07 06:48:17;;;;;;;1.30;1.20;;;17.30;60.90;;;;;;6228330;22;20151;-87
2024/02/07 06:50:44;;;;;;;1.77;1.10;;;17.40;61.00;;;;;;6202447;22;20223;-88
2024/02/07 06:53:10;;;;;;;1.30;0.95;;;17.40;60.90;;;;;;6254466;22;20176;-88
2024/02/07 06:55:36;;;;;;;2.20;1.25;;;17.40;60.80;;;;;;6255899;22;20144;-87
2024/02/07 06:58:06;;;;;;;1.55;1.02;;;17.30;60.90;;;;;;6256021;22;20144;-86
2024/02/07 07:00:36;;;;;;;1.30;1.20;;;17.40;60.50;;;;;;6202855;22;20198;-86
2024/02/07 07:03:05;;;;;;;1.48;1.10;;;17.40;60.30;;;;;;6177889;22;20519;-87
2024/02/07 07:05:32;;;;;;;1.55;1.17;;;17.40;60.60;;;;;;6202410;22;20152;-87
2024/02/07 07:08:01;;;;;;;1.50;1.00;;;17.40;60.60;;;;;;6228753;22;20136;-85
2024/02/07 07:10:30;;;;;;;1.15;0.90;;;17.40;59.40;;;;;;6202393;22;20205;-86
2024/02/07 07:12:59;;;;;;;1.75;0.93;;;17.50;59.60;;;;;;6228621;22;20679;-86
2024/02/07 07:15:27;;;;;;;1.48;1.00;;;17.60;59.50;;;;;;6202316;22;20144;-88
2024/02/07 07:17:55;;;;;;;3.63;1.40;;;17.50;59.90;;;;;;6203131;22;20159;-86
2024/02/07 07:20:21;;;;;;;2.33;1.00;;;17.50;59.10;;;;;;6255083;22;20207;-88
2024/02/07 07:22:47;;;;;;;1.35;1.10;;;17.60;58.90;;;;;;6229324;22;20277;-85
2024/02/07 07:25:15;;;;;;;4.03;1.10;;;17.50;58.90;;;;;;6281725;22;20448;-87
2024/02/07 07:27:44;;;;;;;7.07;1.60;;;17.60;59.10;;;;;;6259072;22;20223;-87
2024/02/07 07:30:30;;;;;;;6.85;1.42;;;17.70;59.10;;;;;;6260526;22;20170;-86
2024/02/07 07:33:06;;;;;;;6.63;1.20;;;17.60;58.50;;;;;;6230623;23;20181;-87
2024/02/07 07:35:32;;;;;;;4.05;1.50;;;17.60;59.30;;;;;;6203923;23;20171;-86
2024/02/07 07:38:03;;;;;;;7.05;1.38;;;17.60;59.20;;;;;;6175433;23;20670;-88
2024/02/07 07:40:32;;;;;;;4.40;1.17;;;17.60;59.40;;;;;;6198404;23;20145;-88
2024/02/07 07:42:59;;;;;;;4.50;1.10;;;17.60;60.00;;;;;;6179215;23;20213;-87
2024/02/07 07:45:32;;;;;;;3.67;1.15;;;17.60;59.40;;;;;;6175579;23;20150;-89
2024/02/07 07:48:49;;;;;;;4.68;1.10;;;17.60;58.60;;;;;;6175725;23;20160;-87
2024/02/07 07:52:01;;;;;;;4.68;1.30;;;17.60;59.10;;;;;;6082987;23;20204;-89
2024/02/07 07:59:29;;;;;;;;;;;;;;;;;;;;;
2024/02/07 08:02:20;;;;;;;3.60;1.25;;;17.60;58.50;;;;;;5746367;25;20224;-86
2024/02/07 08:04:49;;;;;;;3.22;1.35;;;17.60;58.50;;;;;;5723118;25;20161;-86
2024/02/07 08:07:15;;;;;;;3.40;1.10;;;17.70;57.60;;;;;;5674391;25;20563;-85
2024/02/07 08:09:47;;;;;;;6.47;1.10;;;17.70;58.80;;;;;;5696634;25;20155;-85
2024/02/07 08:12:18;;;;;;;4.63;1.67;;;17.70;58.50;;;;;;5697827;25;20238;-86
2024/02/07 08:14:48;;;;;;;5.85;1.50;;;17.70;59.20;;;;;;5674873;25;20225;-86
2024/02/07 08:17:18;;;;;;;3.30;1.10;;;17.70;59.10;;;;;;5672719;25;20159;-86
2024/02/07 08:19:46;;;;;;;3.92;1.05;;;17.70;57.00;;;;;;5693842;25;20169;-85
2024/02/07 08:22:11;;;;;;;3.35;1.00;;;17.80;58.50;;;;;;5713260;25;20169;-84
2024/02/07 08:24:37;;;;;;;3.05;0.88;;;17.70;58.60;;;;;;5675461;25;20170;-85
2024/02/07 08:27:04;;;;;;;1.92;1.20;;;17.80;57.90;;;;;;5696242;25;20160;-84
2024/02/07 08:29:31;;;;;;;5.45;1.20;;;17.80;58.70;;;;;;5722575;25;20179;-85
2024/02/07 08:31:56;;;;;;;2.85;1.25;;;17.80;57.90;;;;;;5812687;24;20169;-88
2024/02/07 08:34:33;;;;;;;;;;;;;;;;;;;;;
2024/02/07 09:04:22;;;;;;;1.92;1.20;;;17.90;58.40;;;;;;6306687;22;20207;-85
2024/02/07 09:06:52;;;;;;;2.65;1.08;;;17.90;57.90;;;;;;6233193;22;20217;-84
2024/02/07 09:09:33;;;;;;;3.80;1.20;;;17.90;58.30;;;;;;6235047;22;20136;-86
2024/02/07 09:12:13;;;;;;;3.90;0.93;;;18.00;58.50;;;;;;6191245;22;20151;-83
2024/02/07 09:14:42;;;;;;;2.85;1.20;;;18.00;58.50;;;;;;6211999;22;20579;-86
2024/02/07 09:17:11;;;;;;;2.05;1.10;;;17.90;58.30;;;;;;6261158;22;20139;-86
2024/02/07 09:19:39;;;;;;;1.58;1.15;;;17.90;58.40;;;;;;6263605;22;20132;-85
2024/02/07 09:22:05;;;;;;;3.60;1.30;;;18.00;57.60;;;;;;6217977;23;20162;-85
2024/02/07 09:24:34;;;;;;;7.32;1.40;;;18.00;58.10;;;;;;6167291;23;20501;-85
2024/02/07 09:27:05;;;;;;;4.40;1.15;;;18.00;59.20;;;;;;6167968;23;20597;-84
2024/02/07 09:29:36;;;;;;;4.50;1.40;;;18.00;59.10;;;;;;6191153;23;20605;-86
2024/02/07 09:32:05;;;;;;;3.45;1.20;;;17.90;58.90;;;;;;6142939;23;20154;-84
2024/02/07 09:35:09;;;;;;;4.40;1.15;;;18.00;59.40;;;;;;6143256;23;20176;-84
2024/02/07 09:37:43;;;;;;;2.38;0.95;;;18.00;59.40;;;;;;6155657;23;20155;-86
2024/02/07 09:40:13;;;;;;;3.35;1.20;;;18.00;57.60;;;;;;6193789;23;20157;-83
2024/02/07 09:42:48;;;;;;;5.50;1.33;;;18.00;57.90;;;;;;6144163;23;20338;-86
2024/02/07 09:45:26;;;;;;;;;;;;;;;;;;;;;
2024/02/07 09:48:35;;;;;;;3.00;1.10;;;18.00;58.50;;;;;;6118647;23;20206;-85
2024/02/07 09:51:04;;;;;;;3.00;1.10;;;18.10;58.00;;;;;;6198373;23;20157;-83
2024/02/07 09:53:33;;;;;;;5.97;1.17;;;18.10;58.00;;;;;;6228988;22;20199;-84
2024/02/07 09:56:01;;;;;;;3.03;1.23;;;18.10;57.60;;;;;;6257083;22;20190;-82
2024/02/07 09:58:27;;;;;;;4.13;1.30;;;18.10;57.80;;;;;;6283044;22;20129;-83
2024/02/07 10:01:06;;;;;;;5.50;1.48;;;18.10;57.70;;;;;;6257749;22;20579;-83
2024/02/07 10:03:45;;;;;;;3.92;1.20;;;18.20;57.30;;;;;;6188375;22;20265;-85
2024/02/07 10:06:12;;;;;;;3.45;1.20;;;18.10;57.70;;;;;;6259053;22;20551;-84
2024/02/07 10:08:39;;;;;;;3.97;1.25;;;18.10;58.30;;;;;;6230517;22;20145;-85
2024/02/07 10:11:07;;;;;;;2.75;1.20;;;18.10;59.00;;;;;;6232139;22;20575;-84
2024/02/07 10:13:33;;;;;;;3.40;1.02;;;18.10;58.10;;;;;;6257291;22;20160;-84
2024/02/07 10:16:00;;;;;;;4.25;1.10;;;18.10;58.20;;;;;;6282534;22;20174;-84
2024/02/07 10:18:29;;;;;;;4.65;1.52;;;18.10;58.60;;;;;;6258425;22;20167;-86
2024/02/07 10:21:03;;;;;;;2.72;1.10;;;18.10;58.50;;;;;;6234415;22;20141;-86
2024/02/07 10:23:29;;;;;;;5.25;1.35;;;18.10;58.50;;;;;;6220495;23;20153;-85
2024/02/07 10:25:55;;;;;;;6.10;1.25;;;18.20;59.10;;;;;;6221361;23;20156;-85
2024/02/07 10:28:24;;;;;;;6.43;1.42;;;18.10;59.00;;;;;;6170643;23;20157;-84
2024/02/07 10:31:06;;;;;;;3.30;1.17;;;18.10;58.70;;;;;;6221319;23;20136;-85
2024/02/07 10:33:34;;;;;;;3.53;1.17;;;18.20;58.60;;;;;;6130540;23;20182;-85
2024/02/07 10:36:01;;;;;;;4.20;0.90;;;18.10;58.00;;;;;;6130530;23;20172;-83
2024/02/07 10:38:38;;;;;;;3.58;1.20;;;18.10;58.00;;;;;;6105127;23;20166;-84
2024/02/07 10:41:04;;;;;;;2.45;1.20;;;18.20;59.10;;;;;;6130182;23;20151;-84
2024/02/07 10:43:36;;;;;;;2.17;1.20;;;18.10;58.40;;;;;;6106214;23;20154;-84
2024/02/07 10:46:13;;;;;;;2.55;1.10;;;18.10;59.10;;;;;;6058833;23;20507;-84
2024/02/07 10:48:42;;;;;;;5.93;1.48;;;18.10;59.10;;;;;;6109345;23;20151;-84
2024/02/07 10:51:07;;;;;;;5.03;1.10;;;18.10;58.80;;;;;;6094568;23;20157;-85
2024/02/07 10:53:33;;;;;;;3.17;1.10;;;18.10;58.60;;;;;;6046566;23;20212;-85
2024/02/07 10:56:00;;;;;;;3.75;1.23;;;18.10;58.90;;;;;;6071648;23;20157;-85
2024/02/07 10:58:39;;;;;;;3.85;1.50;;;18.10;58.50;;;;;;6030595;23;20158;-86
2024/02/07 11:01:06;;;;;;;6.65;1.17;;;18.10;59.60;;;;;;6026299;23;20181;-87
2024/02/07 11:03:31;;;;;;;3.40;1.13;;;18.00;59.60;;;;;;6038475;23;20245;-86
2024/02/07 11:05:58;;;;;;;3.25;0.85;;;18.00;58.70;;;;;;6039481;23;20157;-84
2024/02/07 11:08:25;;;;;;;3.15;1.33;;;18.10;59.40;;;;;;6014569;23;20146;-83
2024/02/07 11:10:54;;;;;;;4.50;1.20;;;18.10;59.40;;;;;;6049080;23;20152;-83
2024/02/07 11:13:33;;;;;;;5.35;1.20;;;18.10;58.90;;;;;;6077606;23;20222;-83
2024/02/07 11:15:59;;;;;;;2.03;1.20;;;18.10;59.00;;;;;;6125655;23;20159;-85
2024/02/07 11:18:25;;;;;;;2.58;1.08;;;18.10;58.60;;;;;;6126058;23;20235;-85
2024/02/07 11:20:52;;;;;;;2.30;0.98;;;18.10;59.00;;;;;;6078524;23;20168;-84
2024/02/07 11:23:24;;;;;;;3.13;0.98;;;18.10;58.40;;;;;;6142289;23;20157;-85
2024/02/07 11:25:55;;;;;;;2.08;1.10;;;18.10;58.30;;;;;;6143955;23;20659;-84
2024/02/07 11:28:23;;;;;;;2.05;1.10;;;18.10;58.40;;;;;;6140984;23;20150;-85
2024/02/07 11:30:50;;;;;;;4.10;0.95;;;18.10;58.20;;;;;;6165088;23;20143;-84
2024/02/07 11:33:16;;;;;;;2.00;1.10;;;18.10;59.00;;;;;;6165148;23;20504;-84
2024/02/07 11:35:41;;;;;;;4.63;1.10;;;18.10;58.80;;;;;;6230473;22;20155;-84
2024/02/07 11:38:11;;;;;;;2.40;1.10;;;18.10;58.40;;;;;;6256945;22;20297;-84
2024/02/07 11:40:40;;;;;;;2.92;0.98;;;18.10;58.20;;;;;;6231448;22;20198;-84
2024/02/07 11:43:10;;;;;;;2.10;1.30;;;18.10;58.00;;;;;;6257172;22;20585;-85
2024/02/07 11:45:37;;;;;;;1.90;1.00;;;18.10;58.50;;;;;;6283042;22;20163;-84
2024/02/07 11:48:16;;;;;;;1.20;0.80;;;18.20;58.60;;;;;;6256808;22;20151;-85
2024/02/07 11:50:42;;;;;;;1.88;1.10;;;18.10;57.60;;;;;;6234073;22;20144;-85
2024/02/07 11:53:22;;;;;;;1.80;1.15;;;18.10;57.90;;;;;;6255406;22;20498;-85
2024/02/07 11:55:48;;;;;;;3.13;1.05;;;18.10;58.20;;;;;;6181895;22;20156;-85
2024/02/07 11:58:16;;;;;;;3.90;1.30;;;18.10;58.20;;;;;;6281719;22;20133;-84
2024/02/07 12:00:46;;;;;;;2.13;1.00;;;18.10;57.40;;;;;;6255655;22;20167;-84
2024/02/07 12:03:14;;;;;;;1.90;0.90;;;18.10;57.80;;;;;;6204268;22;20197;-84
2024/02/07 12:05:42;;;;;;;3.75;1.20;;;18.10;58.40;;;;;;6281765;22;20144;-84
2024/02/07 12:08:09;;;;;;;2.22;1.10;;;18.10;58.40;;;;;;6256108;22;20569;-84
2024/02/07 12:10:49;;;;;;;2.40;0.90;;;18.10;58.60;;;;;;6231464;22;20231;-86
2024/02/07 12:13:19;;;;;;;2.15;0.90;;;18.10;58.50;;;;;;6233906;22;20180;-84
2024/02/07 12:15:48;;;;;;;2.47;1.02;;;18.10;57.70;;;;;;6203064;22;20156;-85
2024/02/07 12:18:14;;;;;;;1.25;1.08;;;18.10;58.80;;;;;;6229189;22;20285;-84
2024/02/07 12:20:40;;;;;;;1.00;0.90;;;18.10;58.10;;;;;;6256973;22;20168;-85
2024/02/07 12:23:06;;;;;;;2.70;1.13;;;18.10;58.50;;;;;;6308935;22;20440;-84
2024/02/07 12:25:33;;;;;;;2.58;0.93;;;18.10;58.40;;;;;;6257533;22;20598;-84
2024/02/07 12:28:17;;;;;;;1.42;0.77;;;18.20;58.00;;;;;;6257487;22;20144;-84
2024/02/07 12:30:43;;;;;;;1.35;0.90;;;18.20;58.30;;;;;;6233073;22;20166;-84
2024/02/07 12:33:08;;;;;;;2.35;1.30;;;18.10;58.10;;;;;;6284266;22;20595;-84
2024/02/07 12:35:34;;;;;;;4.60;1.20;;;18.20;58.30;;;;;;6259365;22;20157;-84
2024/02/07 12:38:01;;;;;;;4.72;1.20;;;18.10;58.10;;;;;;6234423;22;20448;-85
2024/02/07 12:40:30;;;;;;;2.30;0.90;;;18.20;58.30;;;;;;6235429;22;20527;-85
2024/02/07 12:42:57;;;;;;;2.22;0.70;;;18.10;59.10;;;;;;6258862;22;20178;-84
2024/02/07 12:45:25;;;;;;;3.65;0.80;;;18.10;58.90;;;;;;6258220;22;20362;-85
2024/02/07 12:47:54;;;;;;;2.05;0.90;;;18.10;58.20;;;;;;6256805;22;20141;-85
2024/02/07 12:50:20;;;;;;;1.52;0.90;;;18.10;58.30;;;;;;6232067;22;20144;-84
2024/02/07 12:52:46;;;;;;;2.15;0.90;;;18.10;57.60;;;;;;6229495;22;20171;-84
2024/02/07 12:55:12;;;;;;;1.35;1.00;;;18.20;54.90;;;;;;6280559;22;20133;-84
2024/02/07 12:57:37;;;;;;;2.05;1.05;;;18.30;55.30;;;;;;6255003;22;20641;-84
2024/02/07 13:00:11;;;;;;;4.47;1.10;;;18.30;57.00;;;;;;6256529;22;20147;-85
2024/02/07 13:02:52;;;;;;;2.25;0.70;;;18.30;57.50;;;;;;6232843;22;20212;-87
2024/02/07 13:05:18;;;;;;;1.88;1.27;;;18.30;57.50;;;;;;6283791;22;20258;-87
2024/02/07 13:07:44;;;;;;;2.63;1.13;;;18.30;55.90;;;;;;6285130;22;20563;-86
2024/02/07 13:10:10;;;;;;;1.50;0.93;;;18.40;56.40;;;;;;6233571;22;20575;-85
2024/02/07 13:13:15;;;;;;;1.65;0.95;;;18.40;56.70;;;;;;6230977;22;20148;-85
2024/02/07 13:15:56;;;;;;;;;;;;;;;;;;;;;
2024/02/07 13:18:35;;;;;;;1.45;1.10;;;18.30;56.50;;;;;;6252081;22;20647;-86
2024/02/07 13:21:07;;;;;;;1.58;0.80;;;18.40;56.50;;;;;;6234354;22;20168;-85
2024/02/07 13:23:33;;;;;;;0.93;0.80;;;18.30;57.20;;;;;;6232490;22;20148;-86
2024/02/07 13:26:00;;;;;;;1.00;0.80;;;18.30;57.30;;;;;;6284249;22;20566;-85
2024/02/07 13:28:27;;;;;;;3.75;1.02;;;18.30;57.10;;;;;;6259055;22;20449;-88
2024/02/07 13:30:53;;;;;;;1.33;0.93;;;18.30;57.40;;;;;;6233528;22;20151;-86
2024/02/07 13:33:24;;;;;;;1.35;0.88;;;18.30;56.40;;;;;;6235256;22;20519;-85
2024/02/07 13:35:53;;;;;;;2.63;0.90;;;18.40;56.30;;;;;;6232905;22;20137;-84
2024/02/07 13:38:18;;;;;;;2.78;0.90;;;18.40;57.00;;;;;;6256584;22;20190;-88
2024/02/07 13:40:45;;;;;;;1.88;1.08;;;18.40;56.40;;;;;;6231100;22;20516;-86
2024/02/07 13:43:11;;;;;;;1.83;1.05;;;18.30;57.10;;;;;;6255772;22;20235;-86
2024/02/07 13:45:39;;;;;;;1.38;0.73;;;18.40;56.70;;;;;;6256246;22;20128;-86
2024/02/07 13:48:05;;;;;;;2.80;0.90;;;18.30;56.40;;;;;;6204756;22;20238;-86
2024/02/07 13:50:31;;;;;;;2.08;0.82;;;18.30;57.10;;;;;;6256968;22;20136;-87
2024/02/07 13:52:56;;;;;;;3.67;1.10;;;18.30;57.10;;;;;;6257033;22;20170;-84
2024/02/07 13:55:22;;;;;;;1.60;1.00;;;18.30;57.00;;;;;;6282723;22;20177;-83
2024/02/07 13:57:49;;;;;;;1.98;0.90;;;18.30;57.10;;;;;;6256086;22;20153;-86
2024/02/07 14:00:23;;;;;;;1.95;1.10;;;18.30;56.70;;;;;;6231420;22;20168;-87
2024/02/07 14:02:50;;;;;;;4.20;1.08;;;18.30;57.30;;;;;;6234652;22;20144;-84
2024/02/07 14:05:17;;;;;;;1.23;0.90;;;18.30;58.20;;;;;;6283414;22;20184;-84
2024/02/07 14:07:45;;;;;;;1.75;1.00;;;18.30;58.20;;;;;;6280823;22;20170;-84
2024/02/07 14:10:12;;;;;;;1.58;1.00;;;18.20;58.10;;;;;;6256465;22;20152;-84
2024/02/07 14:12:38;;;;;;;3.42;1.08;;;18.20;57.50;;;;;;6257330;22;20128;-85
2024/02/07 14:15:05;;;;;;;3.03;1.00;;;18.20;57.50;;;;;;6257638;22;20467;-86
2024/02/07 14:17:32;;;;;;;1.10;0.98;;;18.20;57.10;;;;;;6231632;22;20140;-85
2024/02/07 14:19:58;;;;;;;1.13;0.80;;;18.20;57.00;;;;;;6231136;22;20189;-84
2024/02/07 14:22:24;;;;;;;1.35;0.80;;;18.30;55.70;;;;;;6258353;22;20132;-85
2024/02/07 14:24:49;;;;;;;3.00;0.80;;;18.40;56.90;;;;;;6260792;22;20444;-86
2024/02/07 14:27:19;;;;;;;0.95;0.80;;;18.40;56.20;;;;;;6232813;22;20149;-85
2024/02/07 14:29:49;;;;;;;1.50;1.10;;;18.40;56.60;;;;;;6231919;22;20206;-83
2024/02/07 14:32:16;;;;;;;1.42;0.95;;;18.40;56.10;;;;;;6210960;22;20162;-84
2024/02/07 14:34:45;;;;;;;1.83;1.00;;;18.50;56.20;;;;;;6234226;22;20172;-85
2024/02/07 14:37:11;;;;;;;3.00;0.90;;;18.40;56.60;;;;;;6257878;22;20166;-83
2024/02/07 14:39:37;;;;;;;1.52;0.90;;;18.30;57.20;;;;;;6258557;22;20133;-85
2024/02/07 14:42:03;;;;;;;5.05;1.10;;;18.30;57.10;;;;;;6257295;22;20136;-85
2024/02/07 14:44:30;;;;;;;2.88;0.90;;;18.30;57.10;;;;;;6231608;22;20486;-86